Local Weather Ingen bokad jour idag Tuesday 24th of October
Flygplats METAR TAF
Airport METAR TAF
ESSL - Linköping241050Z 13007KT 9999 BKN034 OVC042 05/M00 Q1026= ERR 240830Z 2409/2418 120006KT 9999 BKN040=
ESSP - Norrköping241050Z 11005KT 9999 BKN034 05/M00 Q1027= 241130Z 2412/2421 13008KT 9999 BKN035=
ESGJ - Jönköping241050Z 14009KT 9999 SCT019 BKN030 04/01 Q1023= 241130Z 2412/2421 14010KT 9999 SCT019 BKN025 PROB40 2416/2421 4000 RA BKN013 PROB40 2418/2421 13015G25KT=
ESKN - Skavsta241050Z 12011KT 9999 BKN036 06/M01 Q1027= 241130Z 2412/2512 14010KT 9999 BKN035 BECMG 2422/2424 16016G28KT RA TEMPO 2500/2503 4000 -RA BKN012 TEMPO 2503/2508 2500 SHRA BKN008 BKN025CB BECMG 2508/2510 4000 BR OVC004 TEMPO 2510/2512 1200 -RADZ=
ESSV - Visby241050Z 11009KT 9999 BKN040 05/02 Q1026= CCA 240905Z 2409/2418 12010KT 9999 BKN030=
ESGG - Göteborg241050Z 13012KT 9999 -RA BKN022 BKN027 OVC034 04/02 Q1021= 241130Z 2412/2512 13012KT 9999 -RA BKN022 TEMPO 2412/2415 RA BKN014 BECMG 2415/2417 RADZ BKN009 TEMPO 2415/2501 16017G30KT 3000 -RA BKN004 BECMG 2501/2503 23006KT PROB40 2501/2507 1400 BR DZ OVC002 TEMPO 2507/2510 2500 RA BKN004=
FLEET STATUS
Flygplan Tid till service Tid till flygstopp Flygtid Landningar
Aircraft Time to service Time to stop Total time Landings
SE-FCEN/AN/A4 843.1 h248 st.
SE-IUD21.3 h31.3 h10 978.7 h21 675 st.
SE-KIT38.0 h43.0 h11 212.0 h21 271 st.
SE-KMH14.5 h19.5 h15 435.5 h58 155 st.
SE-LLMN/AN/A132.0 h224 st.
SE-MEB31.8 h36.8 h1 118.2 h3 428 st.
SE-SIMN/AN/A1 192.2 h85 st.
NOTAM
ESSL/LINKOPING/SAAB
+ AERODROME CONTROL TOWER (TWR) HOURS OF OPS/SERVICE MON-FRI 0345-2100 SAT 0345-0445 1500-1615 2000-2100 SUN 0445-0545 0945-1115 1545-1700 2100-2200 FROM: 23 OCT 2017 00:00 TO: 29 OCT 2017 23:59 ES/B2854/17
ESCF/LINKOPING/MALMEN
NIL
PPR
Ankomst Avgång Flygplan Namn Bränsle
Arrival Departure Aircraft Name Fuel